Terminal Aerodrome Forecast
Issued by NWS Wakefield, VA

Home | Current Version | Previous Version | Text Only | Print | Product List | Glossary On
Versions: 1 2 3 4 5 6 7 8 9 10 11 12 13 14 15 16 17 18 19 20 21 22 23
000
FTUS41 KAKQ 230603 RRA
TAFORF
TAF
KORF 230603Z 2306/2406 04010KT P6SM VCSH OVC012
     FM231500 05012G20KT P6SM -SHRA OVC020
     FM231800 07014G21KT P6SM -SHRA OVC015
     FM232300 06014G21KT 4SM -SHRA OVC015=

USA.gov is the U.S. government's official web portal to all federal, state and local government web resources and services.